createdAt,value
2023-04-22T00:03:57.965Z,9.78
2023-04-22T00:05:30.310Z,9.79
2023-04-22T00:07:15.363Z,9.87
2023-04-22T00:08:52.694Z,9.95
2023-04-22T00:10:24.444Z,9.96
2023-04-22T00:12:03.466Z,9.98
2023-04-22T00:13:46.700Z,10.00
2023-04-22T00:15:24.707Z,10.02
2023-04-22T00:17:01.974Z,10.05
2023-04-22T00:19:02.146Z,10.06
2023-04-22T00:20:34.564Z,10.11
2023-04-22T00:22:06.626Z,10.16
2023-04-22T00:25:36.228Z,10.18
2023-04-22T00:27:08.323Z,10.13
2023-04-22T00:28:46.535Z,10.13
2023-04-22T00:32:09.970Z,10.03
2023-04-22T00:33:52.724Z,9.99
2023-04-22T00:35:36.115Z,9.95
2023-04-22T00:39:09.310Z,9.87
2023-04-22T00:40:53.054Z,9.85
2023-04-22T00:42:27.669Z,9.88
2023-04-22T00:44:12.123Z,9.88
2023-04-22T00:45:49.888Z,9.87
2023-04-22T00:47:34.057Z,9.90
2023-04-22T00:50:58.668Z,9.91
2023-04-22T00:52:32.946Z,9.93
2023-04-22T00:54:41.285Z,9.94
2023-04-22T00:56:26.086Z,9.96
2023-04-22T00:58:00.980Z,9.97
2023-04-22T00:59:33.231Z,10.00
2023-04-22T01:04:41.960Z,10.00
2023-04-22T01:08:30.813Z,9.89
2023-04-22T01:10:15.512Z,9.88
2023-04-22T01:11:57.901Z,9.77
2023-04-22T01:13:36.645Z,9.70
2023-04-22T01:15:13.722Z,9.60
2023-04-22T01:16:55.945Z,9.48
2023-04-22T01:18:27.761Z,9.41
2023-04-22T01:20:15.045Z,9.38
2023-04-22T01:22:01.037Z,9.29
2023-04-22T01:23:38.824Z,9.25
2023-04-22T01:28:52.416Z,9.17
2023-04-22T01:30:26.868Z,9.15
2023-04-22T01:32:01.760Z,9.13
2023-04-22T01:33:36.722Z,9.13
2023-04-22T01:35:24.003Z,9.12
2023-04-22T01:37:06.129Z,9.10
2023-04-22T01:38:49.066Z,9.11
2023-04-22T01:40:22.794Z,9.09
2023-04-22T01:42:02.465Z,9.10
2023-04-22T01:43:41.298Z,9.11
2023-04-22T01:45:22.380Z,9.09
2023-04-22T01:46:54.132Z,9.08
2023-04-22T01:50:21.841Z,9.04
2023-04-22T01:51:53.615Z,9.04
2023-04-22T01:53:33.226Z,9.03
2023-04-22T01:57:48.085Z,9.00
2023-04-22T02:01:07.407Z,8.96
2023-04-22T02:06:33.807Z,8.90
2023-04-22T02:08:08.603Z,8.86
2023-04-22T02:10:04.786Z,8.83
2023-04-22T02:11:43.660Z,8.78
2023-04-22T02:15:27.096Z,8.77
2023-04-22T02:19:09.686Z,8.86
2023-04-22T02:20:47.198Z,8.84
2023-04-22T02:22:22.768Z,8.86
2023-04-22T02:23:54.582Z,8.83
2023-04-22T02:25:41.575Z,8.77
2023-04-22T02:27:13.203Z,8.71
2023-04-22T02:28:47.737Z,8.67
2023-04-22T02:32:34.395Z,8.60
2023-04-22T02:34:08.197Z,8.59
2023-04-22T02:35:51.107Z,8.59
2023-04-22T02:37:30.156Z,8.60
2023-04-22T02:39:15.289Z,8.62
2023-04-22T02:40:50.327Z,8.67
2023-04-22T02:42:59.583Z,8.70
2023-04-22T02:44:32.154Z,8.74
2023-04-22T02:47:54.831Z,8.76
2023-04-22T02:49:26.608Z,8.74
2023-04-22T02:52:44.148Z,8.70
2023-04-22T02:54:23.134Z,8.68
2023-04-22T02:56:14.716Z,8.61
2023-04-22T02:57:55.367Z,8.57
2023-04-22T03:00:02.312Z,8.57
2023-04-22T03:01:45.342Z,8.59
2023-04-22T03:03:26.851Z,8.62
2023-04-22T03:05:02.448Z,8.69
2023-04-22T03:06:45.623Z,8.76
2023-04-22T03:08:17.137Z,8.82
2023-04-22T03:09:56.120Z,8.82
2023-04-22T03:11:33.755Z,8.80
2023-04-22T03:13:05.415Z,8.76
2023-04-22T03:14:37.070Z,8.74
2023-04-22T03:16:22.997Z,8.73
2023-04-22T03:19:46.666Z,8.70
2023-04-22T03:21:21.514Z,8.70
2023-04-22T03:22:59.503Z,8.67
2023-04-22T03:25:01.575Z,8.63
2023-04-22T03:26:29.021Z,8.62
2023-04-22T03:28:09.186Z,8.62
2023-04-22T03:30:03.236Z,8.66
2023-04-22T03:33:57.671Z,8.64
2023-04-22T03:35:29.515Z,8.64
2023-04-22T03:37:01.536Z,8.65
2023-04-22T03:38:40.906Z,8.65
2023-04-22T03:40:19.879Z,8.66
2023-04-22T03:44:19.612Z,8.62
2023-04-22T03:45:53.777Z,8.59
2023-04-22T03:47:28.472Z,8.58
2023-04-22T03:48:59.953Z,8.61
2023-04-22T03:50:31.894Z,8.61
2023-04-22T03:52:03.955Z,8.57
2023-04-22T03:53:36.623Z,8.57
2023-04-22T03:57:03.005Z,8.53
2023-04-22T03:58:42.136Z,8.52
2023-04-22T04:00:13.785Z,8.53
2023-04-22T04:01:48.014Z,8.53
2023-04-22T04:03:22.694Z,8.56
2023-04-22T04:04:57.539Z,8.56
2023-04-22T04:06:35.133Z,8.55
2023-04-22T04:08:12.793Z,8.56
2023-04-22T04:09:53.751Z,8.57
2023-04-22T04:11:25.268Z,8.55
2023-04-22T04:12:56.827Z,8.55
2023-04-22T04:14:28.406Z,8.53
2023-04-22T04:16:00.601Z,8.57
2023-04-22T04:17:34.377Z,8.59
2023-04-22T04:19:06.901Z,8.60
2023-04-22T04:20:38.481Z,8.66
2023-04-22T04:22:10.772Z,8.76
2023-04-22T04:23:44.693Z,8.81
2023-04-22T04:25:16.324Z,8.94
2023-04-22T04:26:49.117Z,9.01
2023-04-22T04:28:20.745Z,9.07
2023-04-22T04:29:56.085Z,9.08
2023-04-22T04:31:30.576Z,9.13
2023-04-22T04:33:07.464Z,9.21
2023-04-22T04:34:39.184Z,9.26
2023-04-22T04:36:11.062Z,9.33
2023-04-22T04:37:48.888Z,9.41
2023-04-22T04:39:28.187Z,9.46
2023-04-22T04:40:59.934Z,9.55
2023-04-22T04:42:33.609Z,9.61
2023-04-22T04:44:13.426Z,9.70
2023-04-22T04:45:48.905Z,9.80
2023-04-22T04:47:22.785Z,9.90
2023-04-22T04:48:54.852Z,9.96
2023-04-22T04:50:28.150Z,10.02
2023-04-22T04:51:59.757Z,10.05
2023-04-22T04:53:31.445Z,10.08
2023-04-22T04:55:02.998Z,10.09
2023-04-22T04:56:35.358Z,10.13
2023-04-22T04:58:07.074Z,10.11
2023-04-22T04:59:38.841Z,10.08
2023-04-22T05:01:10.754Z,10.08
2023-04-22T05:02:42.588Z,10.11
2023-04-22T05:04:14.558Z,10.11
2023-04-22T05:05:48.501Z,10.13
2023-04-22T05:07:20.053Z,10.14
2023-04-22T05:08:51.681Z,10.15
2023-04-22T05:10:23.570Z,10.19
2023-04-22T05:11:55.193Z,10.19
2023-04-22T05:13:27.720Z,10.25
2023-04-22T05:14:59.311Z,10.32
2023-04-22T05:16:31.155Z,10.38
2023-04-22T05:18:02.980Z,10.43
2023-04-22T05:19:34.559Z,10.51
2023-04-22T05:21:06.287Z,10.57
2023-04-22T05:22:38.258Z,10.62
2023-04-22T05:24:09.867Z,10.67
2023-04-22T05:25:41.547Z,10.62
2023-04-22T05:27:13.168Z,10.50
2023-04-22T05:28:44.782Z,10.40
2023-04-22T05:30:16.366Z,10.36
2023-04-22T05:31:48.163Z,10.33
2023-04-22T05:33:19.726Z,10.32
2023-04-22T05:34:51.350Z,10.40
2023-04-22T05:36:22.911Z,10.54
2023-04-22T05:37:54.621Z,10.67
2023-04-22T05:39:26.988Z,10.80
2023-04-22T05:40:58.623Z,10.94
2023-04-22T05:42:30.138Z,11.02
2023-04-22T05:44:01.975Z,11.10
2023-04-22T05:45:33.620Z,11.23
2023-04-22T05:47:05.381Z,11.31
2023-04-22T05:48:36.941Z,11.39
2023-04-22T05:50:08.861Z,11.48
2023-04-22T05:51:40.503Z,11.52
2023-04-22T05:53:11.993Z,11.56
2023-04-22T05:54:43.652Z,11.57
2023-04-22T05:56:15.589Z,11.62
2023-04-22T05:57:47.671Z,11.68
2023-04-22T05:59:21.090Z,11.75
2023-04-22T06:00:53.260Z,11.81
2023-04-22T06:02:25.005Z,11.87
2023-04-22T06:03:58.114Z,11.95
2023-04-22T06:05:30.400Z,12.04
2023-04-22T06:07:02.108Z,12.10
2023-04-22T06:08:33.673Z,12.17
2023-04-22T06:10:05.854Z,12.26
2023-04-22T06:11:37.509Z,12.38
2023-04-22T06:13:09.861Z,12.46
2023-04-22T06:14:41.543Z,12.57
2023-04-22T06:16:13.127Z,12.68
2023-04-22T06:17:45.796Z,12.82
2023-04-22T06:19:17.413Z,12.98
2023-04-22T06:20:49.004Z,13.18
2023-04-22T06:22:20.655Z,13.34
2023-04-22T06:23:52.450Z,13.41
2023-04-22T06:25:24.112Z,13.41
2023-04-22T06:26:56.373Z,13.56
2023-04-22T06:28:28.162Z,13.68
2023-04-22T06:30:00.329Z,13.70
2023-04-22T06:31:32.461Z,13.72
2023-04-22T06:33:04.253Z,13.80
2023-04-22T06:34:35.994Z,13.93
2023-04-22T06:36:07.628Z,13.99
2023-04-22T06:37:39.690Z,14.03
2023-04-22T06:39:11.266Z,13.95
2023-04-22T06:40:43.688Z,14.05
2023-04-22T06:42:15.259Z,14.15
2023-04-22T06:43:49.786Z,14.26
2023-04-22T06:45:21.504Z,14.41
2023-04-22T06:46:54.642Z,14.56
2023-04-22T06:48:27.938Z,14.61
2023-04-22T06:49:59.851Z,14.63
2023-04-22T06:51:32.079Z,14.66
2023-04-22T06:53:03.718Z,14.78
2023-04-22T06:54:35.533Z,14.83
2023-04-22T06:56:07.380Z,14.97
2023-04-22T06:57:39.002Z,15.01
2023-04-22T06:59:10.754Z,15.16
2023-04-22T07:00:44.061Z,15.27
2023-04-22T07:02:15.776Z,15.34
2023-04-22T07:03:47.562Z,15.33
2023-04-22T07:05:19.375Z,15.47
2023-04-22T07:06:51.424Z,15.63
2023-04-22T07:08:23.081Z,15.77
2023-04-22T07:09:54.928Z,15.81
2023-04-22T07:11:27.953Z,15.79
2023-04-22T07:12:59.617Z,15.90
2023-04-22T07:14:31.890Z,16.13
2023-04-22T07:16:03.569Z,16.31
2023-04-22T07:17:35.132Z,16.40
2023-04-22T07:19:06.757Z,16.44
2023-04-22T07:20:38.323Z,16.47
2023-04-22T07:22:09.973Z,16.52
2023-04-22T07:23:41.690Z,16.58
2023-04-22T07:25:13.365Z,16.52
2023-04-22T07:26:44.997Z,16.46
2023-04-22T07:28:16.613Z,16.37
2023-04-22T07:29:48.196Z,16.34
2023-04-22T07:31:19.864Z,16.27
2023-04-22T07:32:52.548Z,16.26
2023-04-22T07:34:24.180Z,16.34
2023-04-22T07:35:55.738Z,16.45
2023-04-22T07:37:29.184Z,16.61
2023-04-22T07:39:08.176Z,16.76
2023-04-22T07:40:44.888Z,16.98
2023-04-22T07:42:17.028Z,17.23
2023-04-22T07:43:53.395Z,17.40
2023-04-22T07:45:25.351Z,17.53
2023-04-22T07:46:56.854Z,17.58
2023-04-22T07:48:28.382Z,17.74
2023-04-22T07:49:59.968Z,17.80
2023-04-22T07:51:32.424Z,17.83
2023-04-22T07:53:04.215Z,17.87
2023-04-22T07:54:35.848Z,17.91
2023-04-22T07:56:07.387Z,17.79
2023-04-22T07:57:42.697Z,17.77
2023-04-22T07:59:14.280Z,17.85
2023-04-22T08:00:46.014Z,17.90
2023-04-22T08:02:17.678Z,17.95
2023-04-22T08:03:52.532Z,17.97
2023-04-22T08:05:24.273Z,18.00
2023-04-22T08:06:56.313Z,18.10
2023-04-22T08:08:28.561Z,18.19
2023-04-22T08:10:00.328Z,18.26
2023-04-22T08:11:35.062Z,18.26
2023-04-22T08:13:09.458Z,18.33
2023-04-22T08:14:41.144Z,18.41
2023-04-22T08:16:12.706Z,18.37
2023-04-22T08:17:47.554Z,18.35
2023-04-22T08:19:50.281Z,18.31
2023-04-22T08:21:21.992Z,18.14
2023-04-22T08:23:00.733Z,18.07
2023-04-22T08:24:32.446Z,18.07
2023-04-22T08:26:04.173Z,18.09
2023-04-22T08:27:36.220Z,18.13
2023-04-22T08:29:10.693Z,18.13
2023-04-22T08:30:42.589Z,18.13
2023-04-22T08:32:14.336Z,18.09
2023-04-22T08:33:45.966Z,18.14
2023-04-22T08:35:19.476Z,18.22
2023-04-22T08:36:51.119Z,18.30
2023-04-22T08:38:22.691Z,18.42
2023-04-22T08:39:54.224Z,18.40
2023-04-22T08:41:25.801Z,18.37
2023-04-22T08:42:58.250Z,18.43
2023-04-22T08:44:29.874Z,18.40
2023-04-22T08:46:02.370Z,18.39
2023-04-22T08:47:34.263Z,18.41
2023-04-22T08:49:05.897Z,18.40
2023-04-22T08:50:38.492Z,18.46
2023-04-22T08:52:11.811Z,18.57
2023-04-22T08:53:44.098Z,18.67
2023-04-22T08:55:16.165Z,18.65
2023-04-22T08:56:47.723Z,18.59
2023-04-22T08:58:19.536Z,18.60
2023-04-22T08:59:51.080Z,18.67
2023-04-22T09:01:25.816Z,18.64
2023-04-22T09:02:58.361Z,18.56
2023-04-22T09:04:30.101Z,18.56
2023-04-22T09:06:02.497Z,18.56
2023-04-22T09:07:35.599Z,18.62
2023-04-22T09:09:09.098Z,18.78
2023-04-22T09:10:43.630Z,18.94
2023-04-22T09:12:15.296Z,19.14
2023-04-22T09:13:53.431Z,19.40
2023-04-22T09:15:30.633Z,19.64
2023-04-22T09:17:02.552Z,19.86
2023-04-22T09:18:45.988Z,20.07
2023-04-22T09:20:19.930Z,20.19
2023-04-22T09:21:54.150Z,20.17
2023-04-22T09:23:26.108Z,20.22
2023-04-22T09:24:57.877Z,20.38
2023-04-22T09:26:29.398Z,20.61
2023-04-22T09:28:01.070Z,20.73
2023-04-22T09:29:32.677Z,20.62
2023-04-22T09:31:10.571Z,20.52
2023-04-22T09:32:42.178Z,20.37
2023-04-22T09:34:18.952Z,20.36
2023-04-22T09:36:02.026Z,20.51
2023-04-22T09:37:46.508Z,20.69
2023-04-22T09:39:41.520Z,20.79
2023-04-22T09:41:13.885Z,20.91
2023-04-22T09:42:49.892Z,21.10
2023-04-22T09:44:24.120Z,21.24
2023-04-22T09:45:55.956Z,21.35
2023-04-22T09:47:27.752Z,21.36
2023-04-22T09:48:59.626Z,21.32
2023-04-22T09:50:32.000Z,21.21
2023-04-22T09:52:03.617Z,21.11
2023-04-22T09:53:35.151Z,21.10
2023-04-22T09:55:10.388Z,21.13
2023-04-22T09:56:51.526Z,21.26
2023-04-22T09:58:25.985Z,21.46
2023-04-22T09:59:59.214Z,21.60
2023-04-22T10:01:37.445Z,21.86
2023-04-22T10:03:10.912Z,22.08
2023-04-22T10:04:43.057Z,22.27
2023-04-22T10:06:14.811Z,22.43
2023-04-22T10:07:48.760Z,22.49
2023-04-22T10:09:24.274Z,22.56
2023-04-22T10:10:56.281Z,22.62
2023-04-22T10:12:35.156Z,22.66
2023-04-22T10:14:10.797Z,22.63
2023-04-22T10:16:08.962Z,22.60
2023-04-22T10:17:40.698Z,22.57
2023-04-22T10:19:14.189Z,22.48
2023-04-22T10:20:46.290Z,22.46
2023-04-22T10:22:18.454Z,22.52
2023-04-22T10:23:50.534Z,22.66
2023-04-22T10:25:23.133Z,22.81
2023-04-22T10:26:57.207Z,22.86
2023-04-22T10:28:29.282Z,22.86
2023-04-22T10:30:00.968Z,22.86
2023-04-22T10:31:32.749Z,22.83
2023-04-22T10:33:28.641Z,22.78
2023-04-22T10:35:07.441Z,22.59
2023-04-22T10:36:56.889Z,22.58
2023-04-22T10:38:30.515Z,22.69
2023-04-22T10:40:09.067Z,22.72
2023-04-22T10:41:40.703Z,22.62
2023-04-22T10:43:13.431Z,22.52
2023-04-22T10:44:50.748Z,22.40
2023-04-22T10:46:35.068Z,22.33
2023-04-22T10:48:13.034Z,22.36
2023-04-22T10:49:44.894Z,22.38
2023-04-22T10:51:34.788Z,22.42
2023-04-22T10:53:25.375Z,22.54
2023-04-22T10:55:00.043Z,22.72
2023-04-22T10:56:31.770Z,22.94
2023-04-22T10:58:19.170Z,23.10
2023-04-22T10:59:54.600Z,22.96
2023-04-22T11:02:04.597Z,23.07
2023-04-22T11:03:36.387Z,23.32
2023-04-22T11:05:21.599Z,23.47
2023-04-22T11:07:12.947Z,23.63
2023-04-22T11:08:45.764Z,23.67
2023-04-22T11:10:42.349Z,23.80
2023-04-22T11:12:34.208Z,24.05
2023-04-22T11:14:06.047Z,24.25
2023-04-22T11:15:38.271Z,24.37
2023-04-22T11:17:09.793Z,24.55
2023-04-22T11:18:41.748Z,24.68
2023-04-22T11:20:22.513Z,24.70
2023-04-22T11:21:54.400Z,24.73
2023-04-22T11:23:27.571Z,24.65
2023-04-22T11:24:59.968Z,24.33
2023-04-22T11:26:35.489Z,24.03
2023-04-22T11:28:07.360Z,23.78
2023-04-22T11:29:39.061Z,23.62
2023-04-22T11:31:11.038Z,23.52
2023-04-22T11:32:46.038Z,23.59
2023-04-22T11:34:18.173Z,23.71
2023-04-22T11:35:49.922Z,23.84
2023-04-22T11:37:21.936Z,23.97
2023-04-22T11:38:59.730Z,24.08
2023-04-22T11:40:33.326Z,24.17
2023-04-22T11:42:06.913Z,24.14
2023-04-22T11:43:46.185Z,24.07
2023-04-22T11:45:17.960Z,24.05
2023-04-22T11:46:49.504Z,23.97
2023-04-22T11:48:21.118Z,23.88
2023-04-22T11:49:57.697Z,23.77
2023-04-22T11:51:32.058Z,23.63
2023-04-22T11:53:16.522Z,23.49
2023-04-22T11:54:48.029Z,23.37
2023-04-22T11:56:20.848Z,23.27
2023-04-22T11:57:55.708Z,23.10
2023-04-22T11:59:27.303Z,22.97
2023-04-22T12:00:58.992Z,22.85
2023-04-22T12:02:31.510Z,22.70
2023-04-22T12:04:04.576Z,22.55
2023-04-22T12:05:55.964Z,22.47
2023-04-22T12:07:27.539Z,22.36
2023-04-22T12:09:01.272Z,22.24
2023-04-22T12:10:32.859Z,22.12
2023-04-22T12:12:05.301Z,22.08
2023-04-22T12:13:43.648Z,22.00
2023-04-22T12:15:17.510Z,21.98
2023-04-22T12:16:50.743Z,21.92
2023-04-22T12:18:35.218Z,21.85
2023-04-22T12:20:07.891Z,21.85
2023-04-22T12:21:39.422Z,21.91
2023-04-22T12:23:15.046Z,21.96
2023-04-22T12:24:46.673Z,21.95
2023-04-22T12:26:18.900Z,21.91
2023-04-22T12:27:50.592Z,21.90
2023-04-22T12:29:30.219Z,21.93
2023-04-22T12:31:01.889Z,21.93
2023-04-22T12:32:34.340Z,21.94
2023-04-22T12:34:06.326Z,21.92
2023-04-22T12:35:37.965Z,21.81
2023-04-22T12:37:09.680Z,21.76
2023-04-22T12:38:42.063Z,21.81
2023-04-22T12:40:13.601Z,21.84
2023-04-22T12:41:45.424Z,21.89
2023-04-22T12:43:17.313Z,21.85
2023-04-22T12:44:49.469Z,21.77
2023-04-22T12:46:22.722Z,21.61
2023-04-22T12:47:55.557Z,21.54
2023-04-22T12:49:27.311Z,21.37
2023-04-22T12:50:59.110Z,21.20
2023-04-22T12:52:31.581Z,20.98
2023-04-22T12:54:04.970Z,20.79
2023-04-22T12:55:36.722Z,20.64
2023-04-22T12:57:08.800Z,20.47
2023-04-22T12:58:40.866Z,20.30
2023-04-22T13:00:14.587Z,20.23
2023-04-22T13:01:46.593Z,20.15
2023-04-22T13:03:18.707Z,20.08
2023-04-22T13:04:50.738Z,19.93
2023-04-22T13:06:22.313Z,19.81
2023-04-22T13:08:05.753Z,19.70
2023-04-22T13:09:38.651Z,19.67
2023-04-22T13:11:10.395Z,19.71
2023-04-22T13:12:42.178Z,19.84
2023-04-22T13:14:13.760Z,19.96
2023-04-22T13:15:45.959Z,20.02
2023-04-22T13:17:17.544Z,20.08
2023-04-22T13:18:49.122Z,20.06
2023-04-22T13:20:20.676Z,20.07
2023-04-22T13:21:52.150Z,20.02
2023-04-22T13:23:25.996Z,20.00
2023-04-22T13:24:58.056Z,19.99
2023-04-22T13:26:29.641Z,19.87
2023-04-22T13:28:01.222Z,19.70
2023-04-22T13:29:33.194Z,19.55
2023-04-22T13:31:05.020Z,19.44
2023-04-22T13:32:36.720Z,19.43
2023-04-22T13:34:08.317Z,19.43
2023-04-22T13:35:43.049Z,19.53
2023-04-22T13:37:16.439Z,19.54
2023-04-22T13:38:47.935Z,19.59
2023-04-22T13:40:19.505Z,19.67
2023-04-22T13:41:51.002Z,19.75
2023-04-22T13:43:22.878Z,19.78
2023-04-22T13:44:54.413Z,19.81
2023-04-22T13:46:27.250Z,19.83
2023-04-22T13:47:58.994Z,19.67
2023-04-22T13:49:30.586Z,19.52
2023-04-22T13:51:02.227Z,19.38
2023-04-22T13:52:34.118Z,19.35
2023-04-22T13:54:05.766Z,19.29
2023-04-22T13:55:37.739Z,19.30
2023-04-22T13:57:12.392Z,19.36
2023-04-22T13:58:47.901Z,19.40
2023-04-22T14:00:23.602Z,19.39
2023-04-22T14:01:55.129Z,19.25
2023-04-22T14:03:27.005Z,19.17
2023-04-22T14:04:59.144Z,19.16
2023-04-22T14:06:30.906Z,19.18
2023-04-22T14:08:02.544Z,19.18
2023-04-22T14:09:34.771Z,19.25
2023-04-22T14:11:09.001Z,19.23
2023-04-22T14:12:40.629Z,19.27
2023-04-22T14:14:12.307Z,19.24
2023-04-22T14:15:44.763Z,19.21
2023-04-22T14:17:16.387Z,19.12
2023-04-22T14:18:48.056Z,19.15
2023-04-22T14:20:19.958Z,19.18
2023-04-22T14:21:51.821Z,19.15
2023-04-22T14:23:25.102Z,19.22
2023-04-22T14:24:56.824Z,19.26
2023-04-22T14:26:30.748Z,19.23
2023-04-22T14:28:03.304Z,19.22
2023-04-22T14:29:35.254Z,19.29
2023-04-22T14:31:07.405Z,19.34
2023-04-22T14:32:39.240Z,19.34
2023-04-22T14:34:10.935Z,19.33
2023-04-22T14:35:42.558Z,19.33
2023-04-22T14:37:14.173Z,19.30
2023-04-22T14:38:45.733Z,19.34
2023-04-22T14:40:17.603Z,19.33
2023-04-22T14:41:49.212Z,19.31
2023-04-22T14:43:20.862Z,19.25
2023-04-22T14:44:52.549Z,19.22
2023-04-22T14:46:24.245Z,19.23
2023-04-22T14:47:56.519Z,19.22
2023-04-22T14:49:28.268Z,19.25
2023-04-22T14:51:00.315Z,19.28
2023-04-22T14:52:31.900Z,19.33
2023-04-22T14:54:03.788Z,19.33
2023-04-22T14:55:36.071Z,19.34
2023-04-22T14:57:07.711Z,19.27
2023-04-22T14:58:39.266Z,19.22
2023-04-22T15:00:11.355Z,19.14
2023-04-22T15:01:43.253Z,19.10
2023-04-22T15:03:15.346Z,19.06
2023-04-22T15:04:47.184Z,19.05
2023-04-22T15:06:18.669Z,19.12
2023-04-22T15:07:50.859Z,19.16
2023-04-22T15:09:23.009Z,19.18
2023-04-22T15:10:54.952Z,19.09
2023-04-22T15:12:26.609Z,18.97
2023-04-22T15:13:58.323Z,18.97
2023-04-22T15:15:29.997Z,18.99
2023-04-22T15:17:02.150Z,18.96
2023-04-22T15:18:34.095Z,18.89
2023-04-22T15:20:08.706Z,18.82
2023-04-22T15:21:47.864Z,18.77
2023-04-22T15:23:43.389Z,18.73
2023-04-22T15:25:17.444Z,18.48
2023-04-22T15:27:04.636Z,18.32
2023-04-22T15:28:36.638Z,18.22
2023-04-22T15:30:09.405Z,18.13
2023-04-22T15:31:41.198Z,18.06
2023-04-22T15:33:13.148Z,17.99
2023-04-22T15:34:45.105Z,17.97
2023-04-22T15:36:20.123Z,17.91
2023-04-22T15:37:53.013Z,17.83
2023-04-22T15:39:25.355Z,17.83
2023-04-22T15:40:56.915Z,17.85
2023-04-22T15:42:28.612Z,17.87
2023-04-22T15:44:00.396Z,17.93
2023-04-22T15:45:32.288Z,17.92
2023-04-22T15:47:04.055Z,17.91
2023-04-22T15:48:35.942Z,17.88
2023-04-22T15:50:09.461Z,17.89
2023-04-22T15:51:41.592Z,17.84
2023-04-22T15:53:13.317Z,17.80
2023-04-22T15:54:45.069Z,17.79
2023-04-22T15:56:16.916Z,17.79
2023-04-22T15:57:51.218Z,17.81
2023-04-22T15:59:22.952Z,17.81
2023-04-22T16:01:01.756Z,17.77
2023-04-22T16:02:39.989Z,17.74
2023-04-22T16:04:12.415Z,17.71
2023-04-22T16:05:44.245Z,17.76
2023-04-22T16:07:16.246Z,17.84
2023-04-22T16:08:47.979Z,17.89
2023-04-22T16:10:19.721Z,17.92
2023-04-22T16:11:51.496Z,18.01
2023-04-22T16:13:23.486Z,18.11
2023-04-22T16:14:55.703Z,18.18
2023-04-22T16:16:28.187Z,18.19
2023-04-22T16:18:00.311Z,18.15
2023-04-22T16:19:32.361Z,18.05
2023-04-22T16:21:04.392Z,17.96
2023-04-22T16:22:37.472Z,17.93
2023-04-22T16:24:09.579Z,17.85
2023-04-22T16:25:41.543Z,17.83
2023-04-22T16:27:17.149Z,17.76
2023-04-22T16:28:49.687Z,17.70
2023-04-22T16:30:24.470Z,17.74
2023-04-22T16:31:56.757Z,17.78
2023-04-22T16:33:28.791Z,17.81
2023-04-22T16:35:03.702Z,17.72
2023-04-22T16:36:35.315Z,17.54
2023-04-22T16:38:07.371Z,17.41
2023-04-22T16:39:39.777Z,17.33
2023-04-22T16:41:11.997Z,17.31
2023-04-22T16:42:43.626Z,17.30
2023-04-22T16:44:18.792Z,17.23
2023-04-22T16:45:50.492Z,17.21
2023-04-22T16:47:22.201Z,17.19
2023-04-22T16:48:53.998Z,17.20
2023-04-22T16:50:25.864Z,17.17
2023-04-22T16:51:57.423Z,17.13
2023-04-22T16:53:29.048Z,17.06
2023-04-22T16:55:00.863Z,17.06
2023-04-22T16:56:32.448Z,16.99
2023-04-22T16:58:04.193Z,16.85
2023-04-22T16:59:35.873Z,16.72
2023-04-22T17:01:07.670Z,16.63
2023-04-22T17:02:39.873Z,16.54
2023-04-22T17:04:12.288Z,16.40
2023-04-22T17:05:44.013Z,16.24
2023-04-22T17:07:15.743Z,16.11
2023-04-22T17:08:47.475Z,16.01
2023-04-22T17:10:19.062Z,15.87
2023-04-22T17:11:51.970Z,15.77
2023-04-22T17:13:24.084Z,15.70
2023-04-22T17:14:56.287Z,15.61
2023-04-22T17:16:28.423Z,15.48
2023-04-22T17:18:01.018Z,15.29
2023-04-22T17:19:32.655Z,15.11
2023-04-22T17:21:04.523Z,15.00
2023-04-22T17:22:36.108Z,14.87
2023-04-22T17:24:08.425Z,14.86
2023-04-22T17:25:40.490Z,14.86
2023-04-22T17:27:16.233Z,14.82
2023-04-22T17:28:48.270Z,14.75
2023-04-22T17:30:22.345Z,14.68
2023-04-22T17:31:54.548Z,14.53
2023-04-22T17:33:28.433Z,14.45
2023-04-22T17:35:00.232Z,14.41
2023-04-22T17:36:32.661Z,14.38
2023-04-22T17:38:04.598Z,14.33
2023-04-22T17:39:36.321Z,14.27
2023-04-22T17:41:08.108Z,14.15
2023-04-22T17:42:46.012Z,14.11
2023-04-22T17:44:18.078Z,14.08
2023-04-22T17:45:50.004Z,14.06
2023-04-22T17:47:21.745Z,13.99
2023-04-22T17:48:53.775Z,13.96
2023-04-22T17:50:25.547Z,13.94
2023-04-22T17:51:57.868Z,13.84
2023-04-22T17:53:30.037Z,13.81
2023-04-22T17:55:01.923Z,13.75
2023-04-22T17:56:33.713Z,13.70
2023-04-22T17:58:05.596Z,13.65
2023-04-22T17:59:37.313Z,13.64
2023-04-22T18:01:09.065Z,13.65
2023-04-22T18:02:41.408Z,13.64
2023-04-22T18:04:14.057Z,13.60
2023-04-22T18:05:45.959Z,13.56
2023-04-22T18:07:18.593Z,13.54
2023-04-22T18:08:50.914Z,13.55
2023-04-22T18:10:22.765Z,13.55
2023-04-22T18:11:58.826Z,13.49
2023-04-22T18:13:30.913Z,13.46
2023-04-22T18:15:02.778Z,13.44
2023-04-22T18:16:34.921Z,13.42
2023-04-22T18:18:06.669Z,13.38
2023-04-22T18:19:39.171Z,13.35
2023-04-22T18:21:11.345Z,13.32
2023-04-22T18:22:43.659Z,13.32
2023-04-22T18:24:16.010Z,13.31
2023-04-22T18:25:48.791Z,13.30
2023-04-22T18:27:21.686Z,13.26
2023-04-22T18:28:53.395Z,13.27
2023-04-22T18:30:25.378Z,13.23
2023-04-22T18:31:59.901Z,13.24
2023-04-22T18:33:31.728Z,13.17
2023-04-22T18:35:03.649Z,13.14
2023-04-22T18:36:35.897Z,13.09
2023-04-22T18:38:07.582Z,13.07
2023-04-22T18:39:39.713Z,13.06
2023-04-22T18:41:13.892Z,13.01
2023-04-22T18:42:46.278Z,12.95
2023-04-22T18:44:18.689Z,12.93
2023-04-22T18:45:51.200Z,12.92
2023-04-22T18:47:23.132Z,12.86
2023-04-22T18:48:55.178Z,12.79
2023-04-22T18:50:26.890Z,12.74
2023-04-22T18:51:59.126Z,12.76
2023-04-22T18:53:31.261Z,12.75
2023-04-22T18:55:03.518Z,12.69
2023-04-22T18:56:35.839Z,12.64
2023-04-22T18:58:07.514Z,12.60
2023-04-22T18:59:39.991Z,12.59
2023-04-22T19:01:12.149Z,12.56
2023-04-22T19:02:45.435Z,12.55
2023-04-22T19:04:17.316Z,12.54
2023-04-22T19:05:49.209Z,12.53
2023-04-22T19:07:21.411Z,12.52
2023-04-22T19:08:53.359Z,12.56
2023-04-22T19:10:25.089Z,12.52
2023-04-22T19:11:56.820Z,12.52
2023-04-22T19:13:30.139Z,12.54
2023-04-22T19:15:02.285Z,12.52
2023-04-22T19:16:34.628Z,12.48
2023-04-22T19:18:06.216Z,12.49
2023-04-22T19:19:39.016Z,12.48
2023-04-22T19:21:11.738Z,12.45
2023-04-22T19:22:43.820Z,12.42
2023-04-22T19:24:16.271Z,12.44
2023-04-22T19:25:48.585Z,12.45
2023-04-22T19:27:20.690Z,12.45
2023-04-22T19:28:52.246Z,12.45
2023-04-22T19:30:26.772Z,12.43
2023-04-22T19:32:00.066Z,12.42
2023-04-22T19:33:33.132Z,12.37
2023-04-22T19:35:05.605Z,12.36
2023-04-22T19:36:37.593Z,12.32
2023-04-22T19:38:10.648Z,12.30
2023-04-22T19:39:42.790Z,12.30
2023-04-22T19:41:15.232Z,12.31
2023-04-22T19:42:46.942Z,12.27
2023-04-22T19:44:19.127Z,12.29
2023-04-22T19:45:51.018Z,12.33
2023-04-22T19:47:22.773Z,12.36
2023-04-22T19:48:54.478Z,12.34
2023-04-22T19:50:26.278Z,12.34
2023-04-22T19:51:58.619Z,12.35
2023-04-22T19:53:31.418Z,12.30
2023-04-22T19:55:07.488Z,12.29
2023-04-22T19:56:39.536Z,12.22
2023-04-22T19:58:11.276Z,12.17
2023-04-22T19:59:43.078Z,12.12
2023-04-22T20:01:14.878Z,12.10
2023-04-22T20:02:46.914Z,12.10
2023-04-22T20:04:18.938Z,12.09
2023-04-22T20:05:51.088Z,12.03
2023-04-22T20:07:22.814Z,12.03
2023-04-22T20:08:55.478Z,12.04
2023-04-22T20:10:28.187Z,12.02
2023-04-22T20:12:00.201Z,12.05
2023-04-22T20:13:31.833Z,12.07
2023-04-22T20:15:05.270Z,12.02
2023-04-22T20:16:37.729Z,12.02
2023-04-22T20:18:09.794Z,11.99
2023-04-22T20:19:42.182Z,12.02
2023-04-22T20:21:14.206Z,12.03
2023-04-22T20:22:46.050Z,12.03
2023-04-22T20:24:21.005Z,12.04
2023-04-22T20:25:52.586Z,12.04
2023-04-22T20:27:25.845Z,12.04
2023-04-22T20:28:57.576Z,12.09
2023-04-22T20:30:29.733Z,12.17
2023-04-22T20:32:05.049Z,12.21
2023-04-22T20:33:36.908Z,12.23
2023-04-22T20:35:12.469Z,12.26
2023-04-22T20:36:44.187Z,12.30
2023-04-22T20:38:15.898Z,12.34
2023-04-22T20:39:50.270Z,12.34
2023-04-22T20:41:22.142Z,12.35
2023-04-22T20:42:53.902Z,12.32
2023-04-22T20:44:26.345Z,12.34
2023-04-22T20:45:58.464Z,12.38
2023-04-22T20:47:30.850Z,12.38
2023-04-22T20:49:02.611Z,12.38
2023-04-22T20:50:34.491Z,12.39
2023-04-22T20:52:09.329Z,12.42
2023-04-22T20:53:41.081Z,12.43
2023-04-22T20:55:13.076Z,12.39
2023-04-22T20:56:44.828Z,12.40
2023-04-22T20:58:17.025Z,12.34
2023-04-22T20:59:48.875Z,12.25
2023-04-22T21:01:20.774Z,12.13
2023-04-22T21:02:53.214Z,12.08
2023-04-22T21:04:25.512Z,12.03
2023-04-22T21:05:57.532Z,11.96
2023-04-22T21:07:30.969Z,11.84